Flight Track Log - Related Links

Times and Time Zones

All times are in EDT time to prevent confusion due to time zone crossing. See the AAY862 flight status page for this flight to view local times or setup timezone preferences in your user account.

Time Position Orientation Groundspeed Altitude Reporting Facility
EDT Latitude Longitude Course Direction KTS MPH feet Rate Location/Type
Sun 02:04:01 PM 27.9333 -82.6833 270° West 181 208 900  Level Tampa TRACON
Sun 02:04:19 PM 27.9333 -82.7000 270° West 160 184 1,500 2,154 Climbing Tampa TRACON
Sun 02:05:19 PM 27.9833 -82.6833 16° North 204 235 3,700 1,905 Climbing Tampa TRACON
Sun 02:06:25 PM 28.0667 -82.6833 360° North 273 314 5,500 2,254 Climbing Tampa TRACON
Sun 02:08:12 PM 28.1833 -82.7372 338° Northwest 270 311 10,200 2,192 Climbing Jacksonville Center
Sun 02:09:12 PM 28.2689 -82.7583 348° North 284 327 11,600 1,361 Climbing Jacksonville Center
Sun 02:10:11 PM 28.3606 -82.8053 336° Northwest 324 373 12,900 1,550 Climbing Jacksonville Center
Sun 02:11:12 PM 28.4631 -82.8525 338° Northwest 367 422 14,700 2,100 Climbing Jacksonville Center
Sun 02:12:11 PM 28.5736 -82.9019 339° North 402 463 17,100 2,067 Climbing Jacksonville Center
Sun 02:13:11 PM 28.6925 -82.9636 336° Northwest 417 480 18,800 1,650 Climbing Jacksonville Center
Sun 02:14:11 PM 28.8053 -83.0206 336° Northwest 423 487 20,400 1,650 Climbing Jacksonville Center
Sun 02:15:11 PM 28.9178 -83.0847 333° Northwest 433 498 22,100 1,500 Climbing Jacksonville Center
Sun 02:16:11 PM 29.0367 -83.1467 336° Northwest 449 517 23,400 1,636 Climbing Jacksonville Center
Sun 02:17:12 PM 29.1533 -83.2064 336° Northwest 461 531 25,400 1,289 Climbing Jacksonville Center
Sun 02:18:12 PM 29.2722 -83.2686 335° Northwest 461 531 26,000 807 Climbing Jacksonville Center
Sun 02:19:11 PM 29.3953 -83.3336 335° Northwest 461 531 27,000 1,150 Climbing Jacksonville Center
Sun 02:20:12 PM 29.5097 -83.3983 334° Northwest 461 531 28,300 1,350 Climbing Jacksonville Center
Sun 02:21:11 PM 29.6264 -83.4683 332° Northwest 467 537 29,700 850 Climbing Jacksonville Center
Sun 02:22:12 PM 29.7283 -83.5264 334° Northwest 467 537 30,000 150 Climbing Jacksonville Center
Sun 02:23:11 PM 29.8469 -83.5942 334° Northwest 467 537 30,000  Level Jacksonville Center
Sun 02:24:11 PM 29.9594 -83.6597 333° Northwest 467 537 30,000  Level Jacksonville Center
Sun 02:25:11 PM 30.0758 -83.7278 333° Northwest 467 537 30,000  Level Jacksonville Center
Sun 02:26:12 PM 30.1922 -83.7961 333° Northwest 467 537 30,000  Level Jacksonville Center
Sun 02:27:12 PM 30.3067 -83.8622 333° Northwest 467 537 30,000 -50 Level Jacksonville Center
Sun 02:28:11 PM 30.4231 -83.9308 333° Northwest 467 537 29,900  Descending Jacksonville Center
Sun 02:29:12 PM 30.5353 -83.9994 332° Northwest 467 537 30,000 50 Climbing Jacksonville Center
Sun 02:30:11 PM 30.6475 -84.0661 333° Northwest 462 532 30,000  Level Jacksonville Center
Sun 02:31:11 PM 30.7489 -84.1567 322° Northwest 456 525 30,000  Level Jacksonville Center
Sun 02:32:11 PM 30.8439 -84.2547 318° Northwest 456 525 30,000  Level Jacksonville Center
Sun 02:33:11 PM 30.9408 -84.3531 319° Northwest 456 525 30,000  Level Jacksonville Center
Sun 02:34:11 PM 31.0336 -84.4539 317° Northwest 462 532 30,000  Level Jacksonville Center
Sun 02:35:12 PM 31.1306 -84.5528 319° Northwest 462 532 30,000  Level Jacksonville Center
Sun 02:36:11 PM 31.2317 -84.6369 325° Northwest 462 532 30,000  Level Jacksonville Center
Sun 02:38:27 PM 31.4856 -84.7864 333° Northwest 442 509 30,000  Level Atlanta Center
Sun 02:39:27 PM 31.6000 -84.8533 334° Northwest 447 514 30,000  Level Atlanta Center
Sun 02:40:27 PM 31.7164 -84.9203 334° Northwest 447 514 30,000  Level Atlanta Center
Sun 02:41:27 PM 31.8264 -84.9872 333° Northwest 447 514 30,000  Level Atlanta Center
Sun 02:42:27 PM 31.9386 -85.0544 333° Northwest 447 514 30,000  Level Atlanta Center
Sun 02:43:27 PM 32.0550 -85.1219 334° Northwest 452 520 30,000  Level Atlanta Center
Sun 02:44:27 PM 32.1669 -85.1872 334° Northwest 452 520 30,000  Level Atlanta Center
Sun 02:45:27 PM 32.2792 -85.2550 333° Northwest 452 520 30,000  Level Atlanta Center
Sun 02:46:27 PM 32.3911 -85.3228 333° Northwest 446 513 30,000  Level Atlanta Center
Sun 02:47:27 PM 32.5031 -85.3911 333° Northwest 446 513 30,000  Level Atlanta Center
Sun 02:48:27 PM 32.6214 -85.4619 333° Northwest 446 513 30,000  Level Atlanta Center
Sun 02:49:27 PM 32.7353 -85.5278 334° Northwest 446 513 30,000  Level Atlanta Center
Sun 02:50:27 PM 32.8492 -85.5992 332° Northwest 446 513 30,000  Level Atlanta Center
Sun 02:51:27 PM 32.9611 -85.6678 333° Northwest 446 513 30,000  Level Atlanta Center
Sun 02:52:27 PM 33.0750 -85.7394 332° Northwest 452 520 30,000  Level Atlanta Center
Sun 02:53:27 PM 33.1889 -85.8086 333° Northwest 452 520 30,000  Level Atlanta Center
Sun 02:54:27 PM 33.3025 -85.8756 334° Northwest 452 520 30,000  Level Atlanta Center
Sun 02:55:27 PM 33.4286 -85.9578 331° Northwest 452 520 30,000  Level Atlanta Center
Sun 02:56:27 PM 33.5444 -86.0253 334° Northwest 452 520 30,000  Level Atlanta Center
Sun 02:57:27 PM 33.6458 -86.0875 333° Northwest 452 520 30,000  Level Atlanta Center
Sun 02:58:27 PM 33.7572 -86.1600 332° Northwest 452 520 30,000  Level Atlanta Center
Sun 02:59:27 PM 33.8686 -86.2306 332° Northwest 452 520 30,000  Level Atlanta Center
Sun 03:00:27 PM 33.9822 -86.3036 332° Northwest 457 526 30,000  Level Atlanta Center
Sun 03:01:27 PM 34.0956 -86.3717 334° Northwest 457 526 30,000  Level Atlanta Center
Sun 03:02:27 PM 34.2069 -86.4425 332° Northwest 452 520 30,000  Level Atlanta Center
Sun 03:03:27 PM 34.3203 -86.5136 333° Northwest 452 520 30,000  Level Atlanta Center
Sun 03:04:42 PM 34.4747 -86.6150 332° Northwest 459 528 30,000  Level Memphis Center
Sun 03:05:44 PM 34.5872 -86.6867 332° Northwest 460 529 30,000  Level Memphis Center
Sun 03:06:46 PM 34.7000 -86.7575 333° Northwest 460 529 30,000  Level Memphis Center
Sun 03:07:48 PM 34.8125 -86.8311 332° Northwest 460 529 30,000  Level Memphis Center
Sun 03:08:50 PM 34.9261 -86.9039 332° Northwest 460 529 30,000  Level Memphis Center
Sun 03:09:52 PM 35.0625 -86.9919 332° Northwest 461 531 30,000  Level Memphis Center
Sun 03:10:54 PM 35.1781 -87.0669 332° Northwest 466 536 30,000  Level Memphis Center
Sun 03:11:56 PM 35.2936 -87.1408 332° Northwest 469 540 30,000  Level Memphis Center
Sun 03:12:58 PM 35.4119 -87.2211 331° Northwest 469 540 30,000  Level Memphis Center
Sun 03:14:00 PM 35.5292 -87.2978 332° Northwest 470 541 30,000  Level Memphis Center
Sun 03:16:04 PM 35.7636 -87.4517 332° Northwest 470 541 30,000  Level Memphis Center
Sun 03:17:06 PM 35.8789 -87.5278 332° Northwest 469 540 30,000  Level Memphis Center
Sun 03:18:09 PM 36.0136 -87.6156 332° Northwest 466 536 30,000  Level Memphis Center
Sun 03:19:11 PM 36.1275 -87.6919 332° Northwest 463 533 30,000  Level Memphis Center
Sun 03:20:13 PM 36.2400 -87.7664 332° Northwest 458 527 30,000  Level Memphis Center
Sun 03:21:15 PM 36.3519 -87.8422 331° Northwest 454 522 30,000  Level Memphis Center
Sun 03:22:17 PM 36.4642 -87.9167 332° Northwest 454 522 30,000  Level Memphis Center
Sun 03:23:19 PM 36.5736 -87.9903 332° Northwest 448 516 30,000  Level Memphis Center
Sun 03:24:21 PM 36.6833 -88.0639 332° Northwest 447 514 30,000  Level Memphis Center
Sun 03:25:23 PM 36.8053 -88.1478 331° Northwest 445 512 30,000  Level Memphis Center
Sun 03:26:25 PM 36.9128 -88.2222 331° Northwest 447 514 30,000  Level Memphis Center
Sun 03:27:27 PM 37.0214 -88.2961 331° Northwest 447 514 30,000  Level Memphis Center
Sun 03:28:29 PM 37.1294 -88.3697 331° Northwest 446 513 30,000  Level Memphis Center
Sun 03:29:31 PM 37.2358 -88.4431 331° Northwest 441 507 30,000  Level Memphis Center
Sun 03:30:34 PM 37.3650 -88.5328 331° Northwest 441 507 30,000  Level Memphis Center
Sun 03:31:35 PM 37.4719 -88.6075 331° Northwest 441 507 30,000  Level Memphis Center
Sun 03:32:37 PM 37.5811 -88.6833 331° Northwest 443 510 30,000  Level Memphis Center
Sun 03:33:40 PM 37.6914 -88.7611 331° Northwest 449 517 30,000  Level Memphis Center
Sun 03:34:42 PM 37.8022 -88.8381 331° Northwest 452 520 30,000  Level Memphis Center
Sun 03:35:44 PM 37.9339 -88.9314 331° Northwest 452 520 30,000  Level Memphis Center
Sun 03:36:46 PM 38.0461 -89.0089 331° Northwest 455 524 30,000  Level Memphis Center
Sun 03:38:06 PM 38.1728 -89.1011 330° Northwest 448 516 30,000  Level Kansas City Center
Sun 03:39:07 PM 38.3008 -89.1911 331° Northwest 440 506 30,000  Level Kansas City Center
Sun 03:40:11 PM 38.3933 -89.2564 331° Northwest 441 507 30,000  Level Kansas City Center
Sun 03:41:12 PM 38.5178 -89.3453 331° Northwest 442 509 30,000  Level Kansas City Center
Sun 03:42:13 PM 38.6361 -89.4300 331° Northwest 453 521 30,000  Level Kansas City Center
Sun 03:43:17 PM 38.7453 -89.5103 330° Northwest 452 520 30,000  Level Kansas City Center
Sun 03:44:18 PM 38.8561 -89.5894 331° Northwest 453 521 30,000  Level Kansas City Center
Sun 03:45:19 PM 38.9686 -89.6719 330° Northwest 453 521 30,000  Level Kansas City Center
Sun 03:46:19 PM 39.0797 -89.7525 331° Northwest 453 521 30,000  Level Kansas City Center
Sun 03:47:24 PM 39.1983 -89.8378 331° Northwest 458 527 30,000  Level Kansas City Center
Sun 03:48:25 PM 39.3083 -89.9200 330° Northwest 461 531 30,000  Level Kansas City Center
Sun 03:49:26 PM 39.4178 -90.0000 331° Northwest 459 528 30,000  Level Kansas City Center
Sun 03:50:28 PM 39.5264 -90.0808 330° Northwest 458 527 30,000  Level Kansas City Center
Sun 03:51:29 PM 39.6569 -90.1778 330° Northwest 455 524 30,000  Level Kansas City Center
Sun 03:52:30 PM 39.7619 -90.2572 330° Northwest 455 524 30,000  Level Kansas City Center
Sun 03:53:33 PM 39.8733 -90.3400 330° Northwest 455 524 30,000  Level Kansas City Center
Sun 03:54:34 PM 39.9850 -90.4261 329° Northwest 458 527 30,000  Level Kansas City Center
Sun 03:55:37 PM 40.0978 -90.5108 330° Northwest 463 533 30,000  Level Kansas City Center
Sun 03:56:38 PM 40.2075 -90.5944 330° Northwest 461 531 30,000  Level Kansas City Center
Sun 03:57:40 PM 40.3175 -90.6781 330° Northwest 459 528 30,000  Level Kansas City Center
Sun 03:58:41 PM 40.4478 -90.7778 330° Northwest 454 522 30,000 -492 Level Kansas City Center
Sun 03:59:42 PM 40.5578 -90.8617 330° Northwest 453 521 29,000 -976 Descending Chicago Center
Sun 04:00:44 PM 40.6656 -90.9444 330° Northwest 450 518 28,000 -1,200 Descending Chicago Center
Sun 04:01:47 PM 40.7733 -91.0275 330° Northwest 449 517 26,500 -1,694 Descending Chicago Center
Sun 04:02:48 PM 40.8822 -91.1117 330° Northwest 449 517 24,500 -1,610 Descending Chicago Center
Sun 04:03:50 PM 40.9892 -91.1953 329° Northwest 449 517 23,200 -1,210 Descending Chicago Center
Sun 04:04:52 PM 41.0897 -91.2753 329° Northwest 425 489 22,000 -1,548 Descending Chicago Center
Sun 04:05:54 PM 41.2053 -91.3644 330° Northwest 403 464 20,000 -2,081 Descending Chicago Center
Sun 04:06:56 PM 41.2919 -91.4339 329° Northwest 388 447 17,700 -2,000 Descending Chicago Center
Sun 04:07:57 PM 41.3817 -91.5036 330° Northwest 382 440 15,900 -1,805 Descending Chicago Center
Sun 04:08:59 PM 41.4653 -91.5711 329° Northwest 360 414 14,000 -1,597 Descending Chicago Center
Sun 04:10:01 PM 41.5539 -91.6075 343° North 347 399 12,600 -1,742 Descending Chicago Center
Sun 04:11:03 PM 41.6561 -91.6381 347° North 318 366 10,400 -2,226 Descending Chicago Center
Sun 04:12:05 PM 41.7372 -91.6386 360° North 309 356 8,000 -1,935 Descending Chicago Center
Sun 04:13:07 PM 41.8042 -91.5828 32° Northeast 289 333 6,400 -1,887 Descending Chicago Center
Sun 04:14:09 PM 41.8483 -91.5125 50° Northeast 271 312 4,100 -1,645 Descending Chicago Center
Sun 04:15:11 PM 41.8739 -91.4353 66° East 260 299 3,000 -532 Descending Chicago Center
Sun 04:16:13 PM 41.8806 -91.4950 279° West 196 226 3,000 -48 Level Chicago Center
Sun 04:17:15 PM 41.8819 -91.5550 272° West 176 203 2,900 -387 Descending Chicago Center
Sun 04:18:17 PM 41.8831 -91.6083 272° West 161 185 2,200 -629 Descending Chicago Center
Sun 04:19:19 PM 41.8853 -91.6653 273° West 152 175 1,600 -581 Descending Chicago Center

Login

Don't have an account? Register now (free) for customized features, flight alerts, and more!